sensor_id;sensor_type;location;lat;lon;timestamp;temperature;humidity
48019;DHT22;33786;48.690;9.562;2023-05-07T00:02:12;12.00;99.90
48019;DHT22;33786;48.690;9.562;2023-05-07T00:04:39;11.90;99.90
48019;DHT22;33786;48.690;9.562;2023-05-07T00:07:06;11.90;99.90
48019;DHT22;33786;48.690;9.562;2023-05-07T00:09:32;12.00;99.90
48019;DHT22;33786;48.690;9.562;2023-05-07T00:11:59;11.90;99.90
48019;DHT22;33786;48.690;9.562;2023-05-07T00:14:26;11.90;99.90
48019;DHT22;33786;48.690;9.562;2023-05-07T00:16:52;11.90;99.90
48019;DHT22;33786;48.690;9.562;2023-05-07T00:19:19;11.90;99.90
48019;DHT22;33786;48.690;9.562;2023-05-07T00:21:46;11.80;99.90
48019;DHT22;33786;48.690;9.562;2023-05-07T00:24:13;11.70;99.90
48019;DHT22;33786;48.690;9.562;2023-05-07T00:26:39;11.80;99.90
48019;DHT22;33786;48.690;9.562;2023-05-07T00:29:06;11.70;99.90
48019;DHT22;33786;48.690;9.562;2023-05-07T00:31:33;11.70;99.90
48019;DHT22;33786;48.690;9.562;2023-05-07T00:34:00;11.70;99.90
48019;DHT22;33786;48.690;9.562;2023-05-07T00:36:26;11.60;99.90
48019;DHT22;33786;48.690;9.562;2023-05-07T00:38:53;11.60;99.90
48019;DHT22;33786;48.690;9.562;2023-05-07T00:41:20;11.60;99.90
48019;DHT22;33786;48.690;9.562;2023-05-07T00:43:47;11.60;99.90
48019;DHT22;33786;48.690;9.562;2023-05-07T00:46:14;11.70;99.90
48019;DHT22;33786;48.690;9.562;2023-05-07T00:48:42;11.60;99.90
48019;DHT22;33786;48.690;9.562;2023-05-07T00:51:09;11.60;99.90
48019;DHT22;33786;48.690;9.562;2023-05-07T00:53:37;11.70;99.90
48019;DHT22;33786;48.690;9.562;2023-05-07T00:56:04;11.70;99.90
48019;DHT22;33786;48.690;9.562;2023-05-07T00:58:33;11.70;99.90
48019;DHT22;33786;48.690;9.562;2023-05-07T01:00:59;11.70;99.90
48019;DHT22;33786;48.690;9.562;2023-05-07T01:03:26;11.50;99.90
48019;DHT22;33786;48.690;9.562;2023-05-07T01:05:53;11.60;99.90
48019;DHT22;33786;48.690;9.562;2023-05-07T01:08:21;11.60;99.90
48019;DHT22;33786;48.690;9.562;2023-05-07T01:10:48;11.60;99.90
48019;DHT22;33786;48.690;9.562;2023-05-07T01:13:15;11.60;99.90
48019;DHT22;33786;48.690;9.562;2023-05-07T01:15:42;11.60;99.90
48019;DHT22;33786;48.690;9.562;2023-05-07T01:18:09;11.70;99.90
48019;DHT22;33786;48.690;9.562;2023-05-07T01:20:36;11.60;99.90
48019;DHT22;33786;48.690;9.562;2023-05-07T01:23:03;11.60;99.90
48019;DHT22;33786;48.690;9.562;2023-05-07T01:25:30;11.60;99.90
48019;DHT22;33786;48.690;9.562;2023-05-07T01:27:57;11.50;99.90
48019;DHT22;33786;48.690;9.562;2023-05-07T01:30:25;11.60;99.90
48019;DHT22;33786;48.690;9.562;2023-05-07T01:32:57;11.50;99.90
48019;DHT22;33786;48.690;9.562;2023-05-07T01:35:29;11.50;99.90
48019;DHT22;33786;48.690;9.562;2023-05-07T01:37:56;11.50;99.90
48019;DHT22;33786;48.690;9.562;2023-05-07T01:40:24;11.40;99.90
48019;DHT22;33786;48.690;9.562;2023-05-07T01:42:50;11.50;99.90
48019;DHT22;33786;48.690;9.562;2023-05-07T01:45:17;11.40;99.90
48019;DHT22;33786;48.690;9.562;2023-05-07T01:47:44;11.40;99.90
48019;DHT22;33786;48.690;9.562;2023-05-07T01:50:11;11.40;99.90
48019;DHT22;33786;48.690;9.562;2023-05-07T01:52:39;11.40;99.90
48019;DHT22;33786;48.690;9.562;2023-05-07T01:55:06;11.40;99.90
48019;DHT22;33786;48.690;9.562;2023-05-07T01:57:32;11.30;99.90
48019;DHT22;33786;48.690;9.562;2023-05-07T01:59:59;11.30;99.90
48019;DHT22;33786;48.690;9.562;2023-05-07T02:02:26;11.30;99.90
48019;DHT22;33786;48.690;9.562;2023-05-07T02:04:53;11.20;99.90
48019;DHT22;33786;48.690;9.562;2023-05-07T02:07:19;11.20;99.90
48019;DHT22;33786;48.690;9.562;2023-05-07T02:09:46;11.20;99.90
48019;DHT22;33786;48.690;9.562;2023-05-07T02:12:13;11.20;99.90
48019;DHT22;33786;48.690;9.562;2023-05-07T02:14:40;11.30;99.90
48019;DHT22;33786;48.690;9.562;2023-05-07T02:17:07;11.20;99.90
48019;DHT22;33786;48.690;9.562;2023-05-07T02:19:33;11.20;99.90
48019;DHT22;33786;48.690;9.562;2023-05-07T02:22:00;11.10;99.90
48019;DHT22;33786;48.690;9.562;2023-05-07T02:24:27;11.10;99.90
48019;DHT22;33786;48.690;9.562;2023-05-07T02:26:53;11.10;99.90
48019;DHT22;33786;48.690;9.562;2023-05-07T02:29:20;11.10;99.90
48019;DHT22;33786;48.690;9.562;2023-05-07T02:31:46;11.00;99.90
48019;DHT22;33786;48.690;9.562;2023-05-07T02:34:17;11.00;99.90
48019;DHT22;33786;48.690;9.562;2023-05-07T02:36:43;11.00;99.90
48019;DHT22;33786;48.690;9.562;2023-05-07T02:39:10;11.00;99.90
48019;DHT22;33786;48.690;9.562;2023-05-07T02:41:37;11.00;99.90
48019;DHT22;33786;48.690;9.562;2023-05-07T02:44:04;11.00;99.90
48019;DHT22;33786;48.690;9.562;2023-05-07T02:46:30;10.90;99.90
48019;DHT22;33786;48.690;9.562;2023-05-07T02:48:57;10.90;99.90
48019;DHT22;33786;48.690;9.562;2023-05-07T02:51:25;10.80;99.90
48019;DHT22;33786;48.690;9.562;2023-05-07T02:53:52;10.80;99.90
48019;DHT22;33786;48.690;9.562;2023-05-07T02:56:19;10.80;99.90
48019;DHT22;33786;48.690;9.562;2023-05-07T02:58:46;10.80;99.90
48019;DHT22;33786;48.690;9.562;2023-05-07T03:01:12;10.80;99.90
48019;DHT22;33786;48.690;9.562;2023-05-07T03:03:40;10.80;99.90
48019;DHT22;33786;48.690;9.562;2023-05-07T03:06:07;10.80;99.90
48019;DHT22;33786;48.690;9.562;2023-05-07T03:08:34;10.70;99.90
48019;DHT22;33786;48.690;9.562;2023-05-07T03:11:00;10.70;99.90
48019;DHT22;33786;48.690;9.562;2023-05-07T03:13:27;10.50;99.90
48019;DHT22;33786;48.690;9.562;2023-05-07T03:15:54;10.70;99.90
48019;DHT22;33786;48.690;9.562;2023-05-07T03:18:21;10.60;99.90
48019;DHT22;33786;48.690;9.562;2023-05-07T03:20:48;10.60;99.90
48019;DHT22;33786;48.690;9.562;2023-05-07T03:23:15;10.50;99.90
48019;DHT22;33786;48.690;9.562;2023-05-07T03:25:41;10.40;99.90
48019;DHT22;33786;48.690;9.562;2023-05-07T03:28:08;10.50;99.90
48019;DHT22;33786;48.690;9.562;2023-05-07T03:30:35;10.50;99.90
48019;DHT22;33786;48.690;9.562;2023-05-07T03:33:01;10.40;99.90
48019;DHT22;33786;48.690;9.562;2023-05-07T03:35:28;10.40;99.90
48019;DHT22;33786;48.690;9.562;2023-05-07T03:37:55;10.30;99.90
48019;DHT22;33786;48.690;9.562;2023-05-07T03:40:22;10.30;99.90
48019;DHT22;33786;48.690;9.562;2023-05-07T03:42:48;10.30;99.90
48019;DHT22;33786;48.690;9.562;2023-05-07T03:45:15;10.30;99.90
48019;DHT22;33786;48.690;9.562;2023-05-07T03:47:42;10.20;99.90
48019;DHT22;33786;48.690;9.562;2023-05-07T03:50:09;10.10;99.90
48019;DHT22;33786;48.690;9.562;2023-05-07T03:52:37;10.10;99.90
48019;DHT22;33786;48.690;9.562;2023-05-07T03:55:04;10.10;99.90
48019;DHT22;33786;48.690;9.562;2023-05-07T03:57:30;10.10;99.90
48019;DHT22;33786;48.690;9.562;2023-05-07T03:59:57;10.10;99.90
48019;DHT22;33786;48.690;9.562;2023-05-07T04:02:24;10.10;99.90
48019;DHT22;33786;48.690;9.562;2023-05-07T04:04:51;10.10;99.90
48019;DHT22;33786;48.690;9.562;2023-05-07T04:07:18;10.20;99.90
48019;DHT22;33786;48.690;9.562;2023-05-07T04:09:45;10.20;99.90
48019;DHT22;33786;48.690;9.562;2023-05-07T04:12:12;10.20;99.90
48019;DHT22;33786;48.690;9.562;2023-05-07T04:14:38;10.30;99.90
48019;DHT22;33786;48.690;9.562;2023-05-07T04:17:05;10.40;99.90
48019;DHT22;33786;48.690;9.562;2023-05-07T04:19:33;10.40;99.90
48019;DHT22;33786;48.690;9.562;2023-05-07T04:22:00;10.50;99.90
48019;DHT22;33786;48.690;9.562;2023-05-07T04:24:27;10.70;99.90
48019;DHT22;33786;48.690;9.562;2023-05-07T04:26:53;10.70;99.90
48019;DHT22;33786;48.690;9.562;2023-05-07T04:29:21;10.90;99.90
48019;DHT22;33786;48.690;9.562;2023-05-07T04:31:48;11.50;99.90
48019;DHT22;33786;48.690;9.562;2023-05-07T04:34:15;12.00;99.90
48019;DHT22;33786;48.690;9.562;2023-05-07T04:36:42;12.50;99.90
48019;DHT22;33786;48.690;9.562;2023-05-07T04:39:09;12.70;99.90
48019;DHT22;33786;48.690;9.562;2023-05-07T04:41:38;12.80;99.90
48019;DHT22;33786;48.690;9.562;2023-05-07T04:44:05;12.60;99.90
48019;DHT22;33786;48.690;9.562;2023-05-07T04:46:32;12.30;99.90
48019;DHT22;33786;48.690;9.562;2023-05-07T04:48:59;12.30;99.90
48019;DHT22;33786;48.690;9.562;2023-05-07T04:51:26;12.20;99.90
48019;DHT22;33786;48.690;9.562;2023-05-07T04:53:54;12.10;99.90
48019;DHT22;33786;48.690;9.562;2023-05-07T04:56:21;12.20;99.90
48019;DHT22;33786;48.690;9.562;2023-05-07T04:58:48;12.30;99.90
48019;DHT22;33786;48.690;9.562;2023-05-07T05:01:14;12.50;99.90
48019;DHT22;33786;48.690;9.562;2023-05-07T05:03:41;12.80;99.90
48019;DHT22;33786;48.690;9.562;2023-05-07T05:06:09;13.40;99.90
48019;DHT22;33786;48.690;9.562;2023-05-07T05:08:36;13.80;99.90
48019;DHT22;33786;48.690;9.562;2023-05-07T05:11:02;14.50;99.90
48019;DHT22;33786;48.690;9.562;2023-05-07T05:13:29;15.40;99.90
48019;DHT22;33786;48.690;9.562;2023-05-07T05:15:56;16.70;99.90
48019;DHT22;33786;48.690;9.562;2023-05-07T05:18:23;17.60;99.90
48019;DHT22;33786;48.690;9.562;2023-05-07T05:20:51;17.80;99.90
48019;DHT22;33786;48.690;9.562;2023-05-07T05:23:18;17.50;99.90
48019;DHT22;33786;48.690;9.562;2023-05-07T05:25:45;17.10;99.90
48019;DHT22;33786;48.690;9.562;2023-05-07T05:28:12;17.80;99.90
48019;DHT22;33786;48.690;9.562;2023-05-07T05:30:38;19.50;98.50
48019;DHT22;33786;48.690;9.562;2023-05-07T05:33:05;21.50;95.20
48019;DHT22;33786;48.690;9.562;2023-05-07T05:35:32;23.30;92.80
48019;DHT22;33786;48.690;9.562;2023-05-07T05:37:59;24.80;90.40
48019;DHT22;33786;48.690;9.562;2023-05-07T05:40:25;26.30;84.80
48019;DHT22;33786;48.690;9.562;2023-05-07T05:42:52;26.80;80.90
48019;DHT22;33786;48.690;9.562;2023-05-07T05:45:19;27.80;77.00
48019;DHT22;33786;48.690;9.562;2023-05-07T05:47:45;29.00;74.90
48019;DHT22;33786;48.690;9.562;2023-05-07T05:50:12;29.90;71.60
48019;DHT22;33786;48.690;9.562;2023-05-07T05:52:39;30.20;69.30
48019;DHT22;33786;48.690;9.562;2023-05-07T05:55:07;30.90;68.90
48019;DHT22;33786;48.690;9.562;2023-05-07T05:57:34;30.60;67.10
48019;DHT22;33786;48.690;9.562;2023-05-07T06:00:01;30.00;66.50
48019;DHT22;33786;48.690;9.562;2023-05-07T06:02:28;30.10;66.20
48019;DHT22;33786;48.690;9.562;2023-05-07T06:04:55;30.50;65.00
48019;DHT22;33786;48.690;9.562;2023-05-07T06:07:22;31.30;65.10
48019;DHT22;33786;48.690;9.562;2023-05-07T06:09:49;31.10;64.20
48019;DHT22;33786;48.690;9.562;2023-05-07T06:12:16;31.20;63.20
48019;DHT22;33786;48.690;9.562;2023-05-07T06:14:43;31.40;62.80
48019;DHT22;33786;48.690;9.562;2023-05-07T06:17:09;31.60;62.00
48019;DHT22;33786;48.690;9.562;2023-05-07T06:19:36;31.30;62.70
48019;DHT22;33786;48.690;9.562;2023-05-07T06:22:03;30.80;63.00
48019;DHT22;33786;48.690;9.562;2023-05-07T06:24:29;31.00;62.70
48019;DHT22;33786;48.690;9.562;2023-05-07T06:26:56;31.70;62.20
48019;DHT22;33786;48.690;9.562;2023-05-07T06:29:25;32.00;62.40
48019;DHT22;33786;48.690;9.562;2023-05-07T06:31:54;32.20;60.80
48019;DHT22;33786;48.690;9.562;2023-05-07T06:34:21;33.10;60.30
48019;DHT22;33786;48.690;9.562;2023-05-07T06:36:48;33.30;59.90
48019;DHT22;33786;48.690;9.562;2023-05-07T06:39:14;33.20;59.50
48019;DHT22;33786;48.690;9.562;2023-05-07T06:41:41;33.10;59.70
48019;DHT22;33786;48.690;9.562;2023-05-07T06:44:07;33.80;60.20
48019;DHT22;33786;48.690;9.562;2023-05-07T06:46:35;33.10;58.60
48019;DHT22;33786;48.690;9.562;2023-05-07T06:49:02;32.70;59.50
48019;DHT22;33786;48.690;9.562;2023-05-07T06:51:29;32.60;60.50
48019;DHT22;33786;48.690;9.562;2023-05-07T06:53:56;33.30;59.20
48019;DHT22;33786;48.690;9.562;2023-05-07T06:56:23;34.20;58.70
48019;DHT22;33786;48.690;9.562;2023-05-07T06:58:50;34.30;57.50
48019;DHT22;33786;48.690;9.562;2023-05-07T07:01:17;34.70;57.70
48019;DHT22;33786;48.690;9.562;2023-05-07T07:03:43;34.00;57.50
48019;DHT22;33786;48.690;9.562;2023-05-07T07:06:10;33.10;58.30
48019;DHT22;33786;48.690;9.562;2023-05-07T07:08:37;33.10;58.70
48019;DHT22;33786;48.690;9.562;2023-05-07T07:11:05;32.60;59.50
48019;DHT22;33786;48.690;9.562;2023-05-07T07:13:32;31.90;60.00
48019;DHT22;33786;48.690;9.562;2023-05-07T07:15:59;31.90;60.10
48019;DHT22;33786;48.690;9.562;2023-05-07T07:18:26;31.10;60.60
48019;DHT22;33786;48.690;9.562;2023-05-07T07:20:53;30.10;62.30
48019;DHT22;33786;48.690;9.562;2023-05-07T07:23:19;29.50;63.20
48019;DHT22;33786;48.690;9.562;2023-05-07T07:25:46;30.10;62.10
48019;DHT22;33786;48.690;9.562;2023-05-07T07:28:13;30.80;60.90
48019;DHT22;33786;48.690;9.562;2023-05-07T07:30:40;30.70;61.80
48019;DHT22;33786;48.690;9.562;2023-05-07T07:33:06;30.50;62.80
48019;DHT22;33786;48.690;9.562;2023-05-07T07:35:33;30.00;62.70
48019;DHT22;33786;48.690;9.562;2023-05-07T07:38:00;30.90;62.60
48019;DHT22;33786;48.690;9.562;2023-05-07T07:40:27;31.40;61.10
48019;DHT22;33786;48.690;9.562;2023-05-07T07:42:54;31.00;62.00
48019;DHT22;33786;48.690;9.562;2023-05-07T07:45:21;30.10;63.00
48019;DHT22;33786;48.690;9.562;2023-05-07T07:47:48;29.70;63.70
48019;DHT22;33786;48.690;9.562;2023-05-07T07:50:14;29.30;64.60
48019;DHT22;33786;48.690;9.562;2023-05-07T07:52:57;29.60;64.50
48019;DHT22;33786;48.690;9.562;2023-05-07T07:55:24;29.90;64.30
48019;DHT22;33786;48.690;9.562;2023-05-07T07:57:50;29.80;65.20
48019;DHT22;33786;48.690;9.562;2023-05-07T08:00:17;30.00;65.10
48019;DHT22;33786;48.690;9.562;2023-05-07T08:02:44;30.20;65.20
48019;DHT22;33786;48.690;9.562;2023-05-07T08:05:11;30.70;65.70
48019;DHT22;33786;48.690;9.562;2023-05-07T08:07:37;31.80;63.20
48019;DHT22;33786;48.690;9.562;2023-05-07T08:10:04;30.90;62.70
48019;DHT22;33786;48.690;9.562;2023-05-07T08:12:31;31.00;64.60
48019;DHT22;33786;48.690;9.562;2023-05-07T08:15:00;29.30;64.20
48019;DHT22;33786;48.690;9.562;2023-05-07T08:17:27;28.90;67.20
48019;DHT22;33786;48.690;9.562;2023-05-07T08:19:54;29.00;65.50
48019;DHT22;33786;48.690;9.562;2023-05-07T08:22:20;28.80;65.40
48019;DHT22;33786;48.690;9.562;2023-05-07T08:24:48;27.50;67.70
48019;DHT22;33786;48.690;9.562;2023-05-07T08:27:15;27.60;67.70
48019;DHT22;33786;48.690;9.562;2023-05-07T08:29:41;26.90;69.00
48019;DHT22;33786;48.690;9.562;2023-05-07T08:32:08;27.10;68.60
48019;DHT22;33786;48.690;9.562;2023-05-07T08:34:35;27.10;68.20
48019;DHT22;33786;48.690;9.562;2023-05-07T08:37:02;27.10;69.00
48019;DHT22;33786;48.690;9.562;2023-05-07T08:39:30;27.00;68.90
48019;DHT22;33786;48.690;9.562;2023-05-07T08:41:56;26.90;69.20
48019;DHT22;33786;48.690;9.562;2023-05-07T08:44:26;27.30;68.20
48019;DHT22;33786;48.690;9.562;2023-05-07T08:46:54;27.70;70.40
48019;DHT22;33786;48.690;9.562;2023-05-07T08:49:22;27.40;67.30
48019;DHT22;33786;48.690;9.562;2023-05-07T08:51:49;27.60;69.40
48019;DHT22;33786;48.690;9.562;2023-05-07T08:54:16;27.40;67.60
48019;DHT22;33786;48.690;9.562;2023-05-07T08:56:43;27.90;67.40
48019;DHT22;33786;48.690;9.562;2023-05-07T08:59:09;28.20;66.00
48019;DHT22;33786;48.690;9.562;2023-05-07T09:01:36;28.60;65.60
48019;DHT22;33786;48.690;9.562;2023-05-07T09:04:03;28.80;66.70
48019;DHT22;33786;48.690;9.562;2023-05-07T09:06:30;28.10;64.70
48019;DHT22;33786;48.690;9.562;2023-05-07T09:08:57;27.50;66.30
48019;DHT22;33786;48.690;9.562;2023-05-07T09:11:27;27.20;69.50
48019;DHT22;33786;48.690;9.562;2023-05-07T09:13:54;27.90;67.20
48019;DHT22;33786;48.690;9.562;2023-05-07T09:16:22;28.50;67.30
48019;DHT22;33786;48.690;9.562;2023-05-07T09:18:50;29.10;64.80
48019;DHT22;33786;48.690;9.562;2023-05-07T09:21:18;29.50;64.00
48019;DHT22;33786;48.690;9.562;2023-05-07T09:23:44;29.50;65.40
48019;DHT22;33786;48.690;9.562;2023-05-07T09:26:11;30.00;64.50
48019;DHT22;33786;48.690;9.562;2023-05-07T09:28:38;30.40;61.90
48019;DHT22;33786;48.690;9.562;2023-05-07T09:31:07;29.40;62.90
48019;DHT22;33786;48.690;9.562;2023-05-07T09:33:34;28.50;64.00
48019;DHT22;33786;48.690;9.562;2023-05-07T09:36:08;28.50;65.70
48019;DHT22;33786;48.690;9.562;2023-05-07T09:38:36;28.50;65.30
48019;DHT22;33786;48.690;9.562;2023-05-07T09:43:33;28.10;64.80
48019;DHT22;33786;48.690;9.562;2023-05-07T09:46:07;28.50;65.80
48019;DHT22;33786;48.690;9.562;2023-05-07T09:48:36;28.40;64.90
48019;DHT22;33786;48.690;9.562;2023-05-07T09:51:04;28.50;66.70
48019;DHT22;33786;48.690;9.562;2023-05-07T09:53:33;28.40;63.90
48019;DHT22;33786;48.690;9.562;2023-05-07T09:56:00;27.80;65.40
48019;DHT22;33786;48.690;9.562;2023-05-07T09:58:30;26.90;66.00
48019;DHT22;33786;48.690;9.562;2023-05-07T10:00:58;26.60;67.70
48019;DHT22;33786;48.690;9.562;2023-05-07T10:03:25;26.00;68.30
48019;DHT22;33786;48.690;9.562;2023-05-07T10:05:54;25.90;67.60
48019;DHT22;33786;48.690;9.562;2023-05-07T10:08:20;25.40;67.70
48019;DHT22;33786;48.690;9.562;2023-05-07T10:10:47;25.40;69.70
48019;DHT22;33786;48.690;9.562;2023-05-07T10:13:15;25.90;70.40
48019;DHT22;33786;48.690;9.562;2023-05-07T10:15:43;26.80;68.10
48019;DHT22;33786;48.690;9.562;2023-05-07T10:18:10;27.20;69.60
48019;DHT22;33786;48.690;9.562;2023-05-07T10:20:38;27.30;67.30
48019;DHT22;33786;48.690;9.562;2023-05-07T10:23:05;27.30;67.20
48019;DHT22;33786;48.690;9.562;2023-05-07T10:25:35;26.90;67.10
48019;DHT22;33786;48.690;9.562;2023-05-07T10:28:05;26.50;69.10
48019;DHT22;33786;48.690;9.562;2023-05-07T10:33:21;26.20;70.00
48019;DHT22;33786;48.690;9.562;2023-05-07T10:35:49;26.50;68.90
48019;DHT22;33786;48.690;9.562;2023-05-07T10:38:16;26.30;68.60
48019;DHT22;33786;48.690;9.562;2023-05-07T10:40:43;25.90;69.50
48019;DHT22;33786;48.690;9.562;2023-05-07T10:43:12;25.80;68.40
48019;DHT22;33786;48.690;9.562;2023-05-07T10:45:39;26.00;67.70
48019;DHT22;33786;48.690;9.562;2023-05-07T10:48:13;26.30;67.10
48019;DHT22;33786;48.690;9.562;2023-05-07T10:53:41;25.60;68.40
48019;DHT22;33786;48.690;9.562;2023-05-07T10:56:26;25.60;70.50
48019;DHT22;33786;48.690;9.562;2023-05-07T10:58:52;26.20;69.30
48019;DHT22;33786;48.690;9.562;2023-05-07T11:01:54;26.20;67.90
48019;DHT22;33786;48.690;9.562;2023-05-07T11:04:13;25.90;68.50
48019;DHT22;33786;48.690;9.562;2023-05-07T11:06:40;26.00;68.50
48019;DHT22;33786;48.690;9.562;2023-05-07T11:09:07;26.20;66.90
48019;DHT22;33786;48.690;9.562;2023-05-07T11:11:46;26.50;67.20
48019;DHT22;33786;48.690;9.562;2023-05-07T11:14:14;26.90;66.00
48019;DHT22;33786;48.690;9.562;2023-05-07T11:17:02;27.30;67.40
48019;DHT22;33786;48.690;9.562;2023-05-07T11:19:48;27.60;67.60
48019;DHT22;33786;48.690;9.562;2023-05-07T11:24:59;27.70;66.10
48019;DHT22;33786;48.690;9.562;2023-05-07T11:27:26;27.40;65.40
48019;DHT22;33786;48.690;9.562;2023-05-07T11:29:52;26.80;65.90
48019;DHT22;33786;48.690;9.562;2023-05-07T11:32:23;26.90;67.50
48019;DHT22;33786;48.690;9.562;2023-05-07T11:34:53;27.00;65.90
48019;DHT22;33786;48.690;9.562;2023-05-07T11:37:21;27.10;64.70
48019;DHT22;33786;48.690;9.562;2023-05-07T11:39:48;27.60;65.60
48019;DHT22;33786;48.690;9.562;2023-05-07T11:42:31;27.80;65.00
48019;DHT22;33786;48.690;9.562;2023-05-07T11:44:58;27.40;66.60
48019;DHT22;33786;48.690;9.562;2023-05-07T11:47:25;27.40;65.90
48019;DHT22;33786;48.690;9.562;2023-05-07T11:49:52;27.50;67.60
48019;DHT22;33786;48.690;9.562;2023-05-07T11:52:20;27.40;65.10
48019;DHT22;33786;48.690;9.562;2023-05-07T11:54:50;27.40;64.90
48019;DHT22;33786;48.690;9.562;2023-05-07T11:57:17;27.60;64.30
48019;DHT22;33786;48.690;9.562;2023-05-07T11:59:44;27.60;65.40
48019;DHT22;33786;48.690;9.562;2023-05-07T12:02:10;27.10;64.40
48019;DHT22;33786;48.690;9.562;2023-05-07T12:04:40;27.10;64.70
48019;DHT22;33786;48.690;9.562;2023-05-07T12:07:15;27.20;64.30
48019;DHT22;33786;48.690;9.562;2023-05-07T12:09:43;26.90;64.10
48019;DHT22;33786;48.690;9.562;2023-05-07T12:12:10;26.50;64.20
48019;DHT22;33786;48.690;9.562;2023-05-07T12:14:41;26.20;65.20
48019;DHT22;33786;48.690;9.562;2023-05-07T12:17:09;25.90;65.80
48019;DHT22;33786;48.690;9.562;2023-05-07T12:19:36;25.90;66.80
48019;DHT22;33786;48.690;9.562;2023-05-07T12:22:03;26.00;67.10
48019;DHT22;33786;48.690;9.562;2023-05-07T12:24:49;25.70;68.70
48019;DHT22;33786;48.690;9.562;2023-05-07T12:27:16;25.60;68.90
48019;DHT22;33786;48.690;9.562;2023-05-07T12:29:44;25.60;68.10
48019;DHT22;33786;48.690;9.562;2023-05-07T12:32:13;25.50;66.00
48019;DHT22;33786;48.690;9.562;2023-05-07T12:34:40;25.60;68.50
48019;DHT22;33786;48.690;9.562;2023-05-07T12:37:11;25.60;67.40
48019;DHT22;33786;48.690;9.562;2023-05-07T12:39:48;25.60;65.90
48019;DHT22;33786;48.690;9.562;2023-05-07T12:42:16;25.60;67.40
48019;DHT22;33786;48.690;9.562;2023-05-07T12:44:45;25.50;67.70
48019;DHT22;33786;48.690;9.562;2023-05-07T12:47:12;25.40;68.90
48019;DHT22;33786;48.690;9.562;2023-05-07T12:49:39;25.20;70.90
48019;DHT22;33786;48.690;9.562;2023-05-07T12:52:07;24.70;76.10
48019;DHT22;33786;48.690;9.562;2023-05-07T12:54:35;24.20;78.00
48019;DHT22;33786;48.690;9.562;2023-05-07T12:57:06;23.80;79.40
48019;DHT22;33786;48.690;9.562;2023-05-07T12:59:37;23.40;78.80
48019;DHT22;33786;48.690;9.562;2023-05-07T13:02:04;23.10;76.40
48019;DHT22;33786;48.690;9.562;2023-05-07T13:04:32;22.80;78.60
48019;DHT22;33786;48.690;9.562;2023-05-07T13:06:59;22.50;79.00
48019;DHT22;33786;48.690;9.562;2023-05-07T13:09:26;22.10;81.50
48019;DHT22;33786;48.690;9.562;2023-05-07T13:11:53;21.90;84.60
48019;DHT22;33786;48.690;9.562;2023-05-07T13:14:19;21.40;90.00
48019;DHT22;33786;48.690;9.562;2023-05-07T13:16:47;20.90;77.20
48019;DHT22;33786;48.690;9.562;2023-05-07T13:19:14;20.90;75.00
48019;DHT22;33786;48.690;9.562;2023-05-07T13:21:41;21.10;79.40
48019;DHT22;33786;48.690;9.562;2023-05-07T13:24:08;21.20;76.30
48019;DHT22;33786;48.690;9.562;2023-05-07T13:26:35;21.10;79.50
48019;DHT22;33786;48.690;9.562;2023-05-07T13:29:01;21.20;82.30
48019;DHT22;33786;48.690;9.562;2023-05-07T13:31:28;21.20;89.30
48019;DHT22;33786;48.690;9.562;2023-05-07T13:33:55;20.70;90.80
48019;DHT22;33786;48.690;9.562;2023-05-07T13:36:22;20.20;91.30
48019;DHT22;33786;48.690;9.562;2023-05-07T13:38:50;19.80;92.90
48019;DHT22;33786;48.690;9.562;2023-05-07T13:41:16;19.30;92.90
48019;DHT22;33786;48.690;9.562;2023-05-07T13:43:43;19.20;94.00
48019;DHT22;33786;48.690;9.562;2023-05-07T13:46:10;19.30;94.80
48019;DHT22;33786;48.690;9.562;2023-05-07T13:48:36;19.30;95.60
48019;DHT22;33786;48.690;9.562;2023-05-07T13:51:03;19.40;96.10
48019;DHT22;33786;48.690;9.562;2023-05-07T13:53:30;19.40;96.50
48019;DHT22;33786;48.690;9.562;2023-05-07T13:55:56;19.30;97.60
48019;DHT22;33786;48.690;9.562;2023-05-07T13:58:23;19.20;97.40
48019;DHT22;33786;48.690;9.562;2023-05-07T14:00:50;19.30;97.90
48019;DHT22;33786;48.690;9.562;2023-05-07T14:03:17;19.20;98.20
48019;DHT22;33786;48.690;9.562;2023-05-07T14:05:44;19.20;98.10
48019;DHT22;33786;48.690;9.562;2023-05-07T14:08:12;19.20;98.70
48019;DHT22;33786;48.690;9.562;2023-05-07T14:10:40;19.20;98.60
48019;DHT22;33786;48.690;9.562;2023-05-07T14:13:07;19.10;99.50
48019;DHT22;33786;48.690;9.562;2023-05-07T14:15:34;19.10;99.90
48019;DHT22;33786;48.690;9.562;2023-05-07T14:18:00;18.90;99.90
48019;DHT22;33786;48.690;9.562;2023-05-07T14:20:27;18.70;99.90
48019;DHT22;33786;48.690;9.562;2023-05-07T14:22:54;18.30;99.90
48019;DHT22;33786;48.690;9.562;2023-05-07T14:25:23;18.20;99.90
48019;DHT22;33786;48.690;9.562;2023-05-07T14:27:50;18.10;99.90
48019;DHT22;33786;48.690;9.562;2023-05-07T14:30:17;18.00;99.90
48019;DHT22;33786;48.690;9.562;2023-05-07T14:32:43;17.70;99.90
48019;DHT22;33786;48.690;9.562;2023-05-07T14:35:10;17.50;99.90
48019;DHT22;33786;48.690;9.562;2023-05-07T14:37:37;17.40;99.90
48019;DHT22;33786;48.690;9.562;2023-05-07T14:40:04;17.50;99.90
48019;DHT22;33786;48.690;9.562;2023-05-07T14:42:31;17.40;99.90
48019;DHT22;33786;48.690;9.562;2023-05-07T14:44:58;17.30;99.90
48019;DHT22;33786;48.690;9.562;2023-05-07T14:47:24;17.10;99.90
48019;DHT22;33786;48.690;9.562;2023-05-07T14:49:51;17.20;99.90
48019;DHT22;33786;48.690;9.562;2023-05-07T14:52:19;17.10;99.90
48019;DHT22;33786;48.690;9.562;2023-05-07T14:54:46;16.90;99.90
48019;DHT22;33786;48.690;9.562;2023-05-07T14:57:13;16.80;99.90
48019;DHT22;33786;48.690;9.562;2023-05-07T14:59:41;16.80;99.90
48019;DHT22;33786;48.690;9.562;2023-05-07T15:02:09;16.80;99.90
48019;DHT22;33786;48.690;9.562;2023-05-07T15:04:37;16.70;99.90
48019;DHT22;33786;48.690;9.562;2023-05-07T15:07:04;16.70;99.90
48019;DHT22;33786;48.690;9.562;2023-05-07T15:09:31;16.70;99.90
48019;DHT22;33786;48.690;9.562;2023-05-07T15:11:58;16.70;99.90
48019;DHT22;33786;48.690;9.562;2023-05-07T15:14:24;16.70;99.90
48019;DHT22;33786;48.690;9.562;2023-05-07T15:16:51;16.70;99.90
48019;DHT22;33786;48.690;9.562;2023-05-07T15:19:18;16.70;99.90
48019;DHT22;33786;48.690;9.562;2023-05-07T15:21:45;16.60;99.90
48019;DHT22;33786;48.690;9.562;2023-05-07T15:24:11;16.60;99.90
48019;DHT22;33786;48.690;9.562;2023-05-07T15:26:38;16.40;99.90
48019;DHT22;33786;48.690;9.562;2023-05-07T15:29:05;16.40;99.90
48019;DHT22;33786;48.690;9.562;2023-05-07T15:31:36;16.40;99.90
48019;DHT22;33786;48.690;9.562;2023-05-07T15:34:06;16.50;99.90
48019;DHT22;33786;48.690;9.562;2023-05-07T15:36:33;16.50;99.90
48019;DHT22;33786;48.690;9.562;2023-05-07T15:39:00;16.50;99.90
48019;DHT22;33786;48.690;9.562;2023-05-07T15:41:28;16.50;99.90
48019;DHT22;33786;48.690;9.562;2023-05-07T15:43:55;16.40;99.90